sensor_id;sensor_type;location;lat;lon;timestamp;temperature;humidity
11003;DHT22;5554;55.796;13.090;2022-08-19T00:01:25;20.90;99.90
11003;DHT22;5554;55.796;13.090;2022-08-19T00:03:52;20.80;99.90
11003;DHT22;5554;55.796;13.090;2022-08-19T00:06:20;20.90;99.90
11003;DHT22;5554;55.796;13.090;2022-08-19T00:08:48;21.00;99.90
11003;DHT22;5554;55.796;13.090;2022-08-19T00:11:17;21.00;99.90
11003;DHT22;5554;55.796;13.090;2022-08-19T00:13:44;21.00;99.90
11003;DHT22;5554;55.796;13.090;2022-08-19T00:16:11;21.10;99.90
11003;DHT22;5554;55.796;13.090;2022-08-19T00:18:38;21.00;99.90
11003;DHT22;5554;55.796;13.090;2022-08-19T00:21:05;21.10;99.90
11003;DHT22;5554;55.796;13.090;2022-08-19T00:23:34;21.10;99.90
11003;DHT22;5554;55.796;13.090;2022-08-19T00:26:03;21.20;99.90
11003;DHT22;5554;55.796;13.090;2022-08-19T00:28:30;21.10;99.90
11003;DHT22;5554;55.796;13.090;2022-08-19T00:30:58;21.10;99.90
11003;DHT22;5554;55.796;13.090;2022-08-19T00:33:25;21.10;99.90
11003;DHT22;5554;55.796;13.090;2022-08-19T00:35:52;21.10;99.90
11003;DHT22;5554;55.796;13.090;2022-08-19T00:38:24;21.10;99.90
11003;DHT22;5554;55.796;13.090;2022-08-19T00:40:51;21.10;99.90
11003;DHT22;5554;55.796;13.090;2022-08-19T00:43:21;21.10;99.90
11003;DHT22;5554;55.796;13.090;2022-08-19T00:45:48;21.10;99.90
11003;DHT22;5554;55.796;13.090;2022-08-19T00:48:17;21.20;99.90
11003;DHT22;5554;55.796;13.090;2022-08-19T00:50:45;21.20;99.90
11003;DHT22;5554;55.796;13.090;2022-08-19T00:53:14;21.20;99.90
11003;DHT22;5554;55.796;13.090;2022-08-19T00:55:45;21.20;99.90
11003;DHT22;5554;55.796;13.090;2022-08-19T00:58:16;21.20;99.90
11003;DHT22;5554;55.796;13.090;2022-08-19T01:00:46;21.30;99.90
11003;DHT22;5554;55.796;13.090;2022-08-19T01:03:19;21.30;99.90
11003;DHT22;5554;55.796;13.090;2022-08-19T01:05:48;21.30;99.90
11003;DHT22;5554;55.796;13.090;2022-08-19T01:08:20;21.30;99.90
11003;DHT22;5554;55.796;13.090;2022-08-19T01:10:49;21.30;99.90
11003;DHT22;5554;55.796;13.090;2022-08-19T01:13:19;21.30;99.90
11003;DHT22;5554;55.796;13.090;2022-08-19T01:15:53;21.30;99.90
11003;DHT22;5554;55.796;13.090;2022-08-19T01:18:22;21.30;99.90
11003;DHT22;5554;55.796;13.090;2022-08-19T01:23:47;21.30;99.90
11003;DHT22;5554;55.796;13.090;2022-08-19T01:26:18;21.30;99.90
11003;DHT22;5554;55.796;13.090;2022-08-19T01:28:47;21.30;99.90
11003;DHT22;5554;55.796;13.090;2022-08-19T01:31:17;21.30;99.90
11003;DHT22;5554;55.796;13.090;2022-08-19T01:33:47;21.30;99.90
11003;DHT22;5554;55.796;13.090;2022-08-19T01:36:16;21.30;99.90
11003;DHT22;5554;55.796;13.090;2022-08-19T01:38:49;21.30;99.90
11003;DHT22;5554;55.796;13.090;2022-08-19T01:41:17;21.20;99.90
11003;DHT22;5554;55.796;13.090;2022-08-19T01:43:45;21.10;99.90
11003;DHT22;5554;55.796;13.090;2022-08-19T01:46:12;21.10;99.90
11003;DHT22;5554;55.796;13.090;2022-08-19T01:48:41;21.00;99.90
11003;DHT22;5554;55.796;13.090;2022-08-19T01:51:10;20.70;99.90
11003;DHT22;5554;55.796;13.090;2022-08-19T01:53:38;20.50;99.90
11003;DHT22;5554;55.796;13.090;2022-08-19T01:56:06;20.40;99.90
11003;DHT22;5554;55.796;13.090;2022-08-19T01:58:43;20.20;99.90
11003;DHT22;5554;55.796;13.090;2022-08-19T02:01:12;20.30;99.90
11003;DHT22;5554;55.796;13.090;2022-08-19T02:03:39;20.30;99.90
11003;DHT22;5554;55.796;13.090;2022-08-19T02:06:07;20.30;99.90
11003;DHT22;5554;55.796;13.090;2022-08-19T02:08:36;20.20;99.90
11003;DHT22;5554;55.796;13.090;2022-08-19T02:11:06;20.20;99.90
11003;DHT22;5554;55.796;13.090;2022-08-19T02:13:34;20.20;99.90
11003;DHT22;5554;55.796;13.090;2022-08-19T02:16:02;20.10;99.90
11003;DHT22;5554;55.796;13.090;2022-08-19T02:18:35;20.00;99.90
11003;DHT22;5554;55.796;13.090;2022-08-19T02:21:03;19.90;99.90
11003;DHT22;5554;55.796;13.090;2022-08-19T02:23:31;19.90;99.90
11003;DHT22;5554;55.796;13.090;2022-08-19T02:25:58;19.80;99.90
11003;DHT22;5554;55.796;13.090;2022-08-19T02:28:26;19.90;99.90
11003;DHT22;5554;55.796;13.090;2022-08-19T02:30:53;19.90;99.90
11003;DHT22;5554;55.796;13.090;2022-08-19T02:33:20;19.80;99.90
11003;DHT22;5554;55.796;13.090;2022-08-19T02:35:47;19.80;99.90
11003;DHT22;5554;55.796;13.090;2022-08-19T02:38:15;19.60;99.90
11003;DHT22;5554;55.796;13.090;2022-08-19T02:40:54;19.70;99.90
11003;DHT22;5554;55.796;13.090;2022-08-19T02:43:22;19.60;99.90
11003;DHT22;5554;55.796;13.090;2022-08-19T02:45:52;19.60;99.90
11003;DHT22;5554;55.796;13.090;2022-08-19T02:48:20;19.60;99.90
11003;DHT22;5554;55.796;13.090;2022-08-19T02:50:49;19.60;99.90
11003;DHT22;5554;55.796;13.090;2022-08-19T02:53:33;19.60;99.90
11003;DHT22;5554;55.796;13.090;2022-08-19T02:56:06;19.60;99.90
11003;DHT22;5554;55.796;13.090;2022-08-19T02:58:34;19.60;99.90
11003;DHT22;5554;55.796;13.090;2022-08-19T03:01:02;19.60;99.90
11003;DHT22;5554;55.796;13.090;2022-08-19T03:03:32;19.70;99.90
11003;DHT22;5554;55.796;13.090;2022-08-19T03:06:04;19.70;99.90
11003;DHT22;5554;55.796;13.090;2022-08-19T03:08:31;19.80;99.90
11003;DHT22;5554;55.796;13.090;2022-08-19T03:10:58;19.90;99.90
11003;DHT22;5554;55.796;13.090;2022-08-19T03:13:25;19.90;99.90
11003;DHT22;5554;55.796;13.090;2022-08-19T03:15:53;19.90;99.90
11003;DHT22;5554;55.796;13.090;2022-08-19T03:18:22;20.00;99.90
11003;DHT22;5554;55.796;13.090;2022-08-19T03:20:50;20.00;99.90
11003;DHT22;5554;55.796;13.090;2022-08-19T03:23:18;19.90;99.90
11003;DHT22;5554;55.796;13.090;2022-08-19T03:25:47;19.90;99.90
11003;DHT22;5554;55.796;13.090;2022-08-19T03:28:15;19.90;99.90
11003;DHT22;5554;55.796;13.090;2022-08-19T03:30:53;20.00;99.90
11003;DHT22;5554;55.796;13.090;2022-08-19T03:33:32;20.00;99.90
11003;DHT22;5554;55.796;13.090;2022-08-19T03:36:05;19.80;99.90
11003;DHT22;5554;55.796;13.090;2022-08-19T03:38:34;19.90;99.90
11003;DHT22;5554;55.796;13.090;2022-08-19T03:41:06;19.90;99.90
11003;DHT22;5554;55.796;13.090;2022-08-19T03:43:35;20.00;99.90
11003;DHT22;5554;55.796;13.090;2022-08-19T03:46:04;20.00;99.90
11003;DHT22;5554;55.796;13.090;2022-08-19T03:48:34;20.00;99.90
11003;DHT22;5554;55.796;13.090;2022-08-19T03:51:02;20.10;99.90
11003;DHT22;5554;55.796;13.090;2022-08-19T03:53:31;20.10;99.90
11003;DHT22;5554;55.796;13.090;2022-08-19T03:55:59;20.10;99.90
11003;DHT22;5554;55.796;13.090;2022-08-19T03:58:27;20.10;99.90
11003;DHT22;5554;55.796;13.090;2022-08-19T04:00:56;20.20;99.90
11003;DHT22;5554;55.796;13.090;2022-08-19T04:03:23;20.20;99.90
11003;DHT22;5554;55.796;13.090;2022-08-19T04:05:52;20.20;99.90
11003;DHT22;5554;55.796;13.090;2022-08-19T04:08:19;20.30;99.90
11003;DHT22;5554;55.796;13.090;2022-08-19T04:10:48;20.20;99.90
11003;DHT22;5554;55.796;13.090;2022-08-19T04:13:16;20.20;99.90
11003;DHT22;5554;55.796;13.090;2022-08-19T04:15:45;20.30;99.90
11003;DHT22;5554;55.796;13.090;2022-08-19T04:18:13;20.30;99.90
11003;DHT22;5554;55.796;13.090;2022-08-19T04:20:46;20.20;99.90
11003;DHT22;5554;55.796;13.090;2022-08-19T04:23:15;20.10;99.90
11003;DHT22;5554;55.796;13.090;2022-08-19T04:25:44;20.10;99.90
11003;DHT22;5554;55.796;13.090;2022-08-19T04:28:12;20.20;99.90
11003;DHT22;5554;55.796;13.090;2022-08-19T04:30:41;20.20;99.90
11003;DHT22;5554;55.796;13.090;2022-08-19T04:33:08;20.30;99.90
11003;DHT22;5554;55.796;13.090;2022-08-19T04:35:37;20.30;99.90
11003;DHT22;5554;55.796;13.090;2022-08-19T04:38:05;20.30;99.90
11003;DHT22;5554;55.796;13.090;2022-08-19T04:40:34;20.30;99.90
11003;DHT22;5554;55.796;13.090;2022-08-19T04:43:18;20.30;99.90
11003;DHT22;5554;55.796;13.090;2022-08-19T04:45:45;20.30;99.90
11003;DHT22;5554;55.796;13.090;2022-08-19T04:48:12;20.30;99.90
11003;DHT22;5554;55.796;13.090;2022-08-19T04:50:41;20.20;99.90
11003;DHT22;5554;55.796;13.090;2022-08-19T04:53:09;20.20;99.90
11003;DHT22;5554;55.796;13.090;2022-08-19T04:55:40;20.20;99.90
11003;DHT22;5554;55.796;13.090;2022-08-19T04:58:07;20.30;99.90
11003;DHT22;5554;55.796;13.090;2022-08-19T05:00:37;20.30;99.90
11003;DHT22;5554;55.796;13.090;2022-08-19T05:03:04;20.30;99.90
11003;DHT22;5554;55.796;13.090;2022-08-19T05:05:31;20.40;99.90
11003;DHT22;5554;55.796;13.090;2022-08-19T05:08:01;20.50;99.90
11003;DHT22;5554;55.796;13.090;2022-08-19T05:10:28;20.50;99.90
11003;DHT22;5554;55.796;13.090;2022-08-19T05:12:57;20.50;99.90
11003;DHT22;5554;55.796;13.090;2022-08-19T05:15:24;20.50;99.90
11003;DHT22;5554;55.796;13.090;2022-08-19T05:17:51;20.60;99.90
11003;DHT22;5554;55.796;13.090;2022-08-19T05:20:37;20.60;99.90
11003;DHT22;5554;55.796;13.090;2022-08-19T05:23:22;20.60;99.90
11003;DHT22;5554;55.796;13.090;2022-08-19T05:25:49;20.70;99.90
11003;DHT22;5554;55.796;13.090;2022-08-19T05:28:18;20.80;99.90
11003;DHT22;5554;55.796;13.090;2022-08-19T05:30:46;20.70;99.90
11003;DHT22;5554;55.796;13.090;2022-08-19T05:33:14;20.80;99.90
11003;DHT22;5554;55.796;13.090;2022-08-19T05:35:41;20.90;99.90
11003;DHT22;5554;55.796;13.090;2022-08-19T05:38:10;20.90;99.90
11003;DHT22;5554;55.796;13.090;2022-08-19T05:40:39;20.80;99.90
11003;DHT22;5554;55.796;13.090;2022-08-19T05:43:07;20.70;99.90
11003;DHT22;5554;55.796;13.090;2022-08-19T05:45:40;20.80;99.90
11003;DHT22;5554;55.796;13.090;2022-08-19T05:48:07;20.90;99.90
11003;DHT22;5554;55.796;13.090;2022-08-19T05:50:37;21.00;99.90
11003;DHT22;5554;55.796;13.090;2022-08-19T05:53:04;21.00;99.90
11003;DHT22;5554;55.796;13.090;2022-08-19T05:55:31;21.10;99.90
11003;DHT22;5554;55.796;13.090;2022-08-19T05:57:58;21.10;99.90
11003;DHT22;5554;55.796;13.090;2022-08-19T06:00:27;21.20;99.90
11003;DHT22;5554;55.796;13.090;2022-08-19T06:02:58;21.20;99.90
11003;DHT22;5554;55.796;13.090;2022-08-19T06:05:29;21.20;99.90
11003;DHT22;5554;55.796;13.090;2022-08-19T06:07:56;21.30;99.90
11003;DHT22;5554;55.796;13.090;2022-08-19T06:10:24;21.30;99.90
11003;DHT22;5554;55.796;13.090;2022-08-19T06:12:51;21.30;99.90
11003;DHT22;5554;55.796;13.090;2022-08-19T06:15:18;21.50;99.90
11003;DHT22;5554;55.796;13.090;2022-08-19T06:17:47;21.60;99.90
11003;DHT22;5554;55.796;13.090;2022-08-19T06:20:16;21.50;99.90
11003;DHT22;5554;55.796;13.090;2022-08-19T06:22:45;21.60;99.90
11003;DHT22;5554;55.796;13.090;2022-08-19T06:25:13;21.60;99.90
11003;DHT22;5554;55.796;13.090;2022-08-19T06:27:41;21.60;99.90
11003;DHT22;5554;55.796;13.090;2022-08-19T06:30:09;21.60;99.90
11003;DHT22;5554;55.796;13.090;2022-08-19T06:32:37;21.50;99.90
11003;DHT22;5554;55.796;13.090;2022-08-19T06:35:05;21.60;99.90
11003;DHT22;5554;55.796;13.090;2022-08-19T06:37:35;21.60;99.90
11003;DHT22;5554;55.796;13.090;2022-08-19T06:40:03;21.70;99.90
11003;DHT22;5554;55.796;13.090;2022-08-19T06:42:30;21.80;99.90
11003;DHT22;5554;55.796;13.090;2022-08-19T06:44:57;21.80;99.90
11003;DHT22;5554;55.796;13.090;2022-08-19T06:47:24;21.80;99.90
11003;DHT22;5554;55.796;13.090;2022-08-19T06:49:53;21.90;99.90
11003;DHT22;5554;55.796;13.090;2022-08-19T06:52:21;21.90;99.90
11003;DHT22;5554;55.796;13.090;2022-08-19T06:54:50;21.90;99.90
11003;DHT22;5554;55.796;13.090;2022-08-19T06:57:17;21.90;99.90
11003;DHT22;5554;55.796;13.090;2022-08-19T06:59:44;22.00;99.90
11003;DHT22;5554;55.796;13.090;2022-08-19T07:02:12;21.90;99.90
11003;DHT22;5554;55.796;13.090;2022-08-19T07:04:39;22.00;99.90
11003;DHT22;5554;55.796;13.090;2022-08-19T07:07:16;22.10;99.90
11003;DHT22;5554;55.796;13.090;2022-08-19T07:09:44;22.10;99.90
11003;DHT22;5554;55.796;13.090;2022-08-19T07:12:14;21.80;99.90
11003;DHT22;5554;55.796;13.090;2022-08-19T07:14:57;21.90;99.90
11003;DHT22;5554;55.796;13.090;2022-08-19T07:17:28;22.00;99.90
11003;DHT22;5554;55.796;13.090;2022-08-19T07:20:27;22.10;99.90
11003;DHT22;5554;55.796;13.090;2022-08-19T07:22:54;22.10;99.90
11003;DHT22;5554;55.796;13.090;2022-08-19T07:25:21;22.10;99.90
11003;DHT22;5554;55.796;13.090;2022-08-19T07:27:50;22.00;99.90
11003;DHT22;5554;55.796;13.090;2022-08-19T07:30:17;22.20;99.90
11003;DHT22;5554;55.796;13.090;2022-08-19T07:32:47;22.30;99.90
11003;DHT22;5554;55.796;13.090;2022-08-19T07:35:16;22.30;99.90
11003;DHT22;5554;55.796;13.090;2022-08-19T07:37:45;22.30;99.90
11003;DHT22;5554;55.796;13.090;2022-08-19T07:40:12;22.30;99.90
11003;DHT22;5554;55.796;13.090;2022-08-19T07:42:39;22.40;99.90
11003;DHT22;5554;55.796;13.090;2022-08-19T07:45:09;22.30;99.90
11003;DHT22;5554;55.796;13.090;2022-08-19T07:47:37;22.40;99.90
11003;DHT22;5554;55.796;13.090;2022-08-19T07:50:10;22.40;99.90
11003;DHT22;5554;55.796;13.090;2022-08-19T07:53:07;22.50;99.90
11003;DHT22;5554;55.796;13.090;2022-08-19T07:55:34;22.50;99.90
11003;DHT22;5554;55.796;13.090;2022-08-19T07:58:03;22.50;99.90
11003;DHT22;5554;55.796;13.090;2022-08-19T08:00:34;22.50;99.90
11003;DHT22;5554;55.796;13.090;2022-08-19T08:06:05;22.60;99.90
11003;DHT22;5554;55.796;13.090;2022-08-19T08:08:50;22.70;99.90
11003;DHT22;5554;55.796;13.090;2022-08-19T08:11:43;22.70;99.90
11003;DHT22;5554;55.796;13.090;2022-08-19T08:14:16;22.60;99.90
11003;DHT22;5554;55.796;13.090;2022-08-19T08:16:46;22.70;99.90
11003;DHT22;5554;55.796;13.090;2022-08-19T08:19:27;22.80;99.90
11003;DHT22;5554;55.796;13.090;2022-08-19T08:21:57;22.80;99.90
11003;DHT22;5554;55.796;13.090;2022-08-19T08:24:34;22.90;99.90
11003;DHT22;5554;55.796;13.090;2022-08-19T08:27:04;23.00;99.90
11003;DHT22;5554;55.796;13.090;2022-08-19T08:29:31;23.00;99.90
11003;DHT22;5554;55.796;13.090;2022-08-19T08:32:00;23.00;99.90
11003;DHT22;5554;55.796;13.090;2022-08-19T08:34:27;23.10;99.90
11003;DHT22;5554;55.796;13.090;2022-08-19T08:36:54;23.20;99.90
11003;DHT22;5554;55.796;13.090;2022-08-19T08:39:21;23.20;99.90
11003;DHT22;5554;55.796;13.090;2022-08-19T08:41:53;23.20;99.90
11003;DHT22;5554;55.796;13.090;2022-08-19T08:44:23;23.30;99.90
11003;DHT22;5554;55.796;13.090;2022-08-19T08:46:56;23.20;99.90
11003;DHT22;5554;55.796;13.090;2022-08-19T08:49:32;23.10;99.90
11003;DHT22;5554;55.796;13.090;2022-08-19T08:52:05;23.30;99.90
11003;DHT22;5554;55.796;13.090;2022-08-19T08:54:36;23.30;99.90
11003;DHT22;5554;55.796;13.090;2022-08-19T08:57:09;23.40;99.90
11003;DHT22;5554;55.796;13.090;2022-08-19T08:59:40;23.40;99.90
11003;DHT22;5554;55.796;13.090;2022-08-19T09:02:07;23.40;99.90
11003;DHT22;5554;55.796;13.090;2022-08-19T09:04:37;23.40;99.90
11003;DHT22;5554;55.796;13.090;2022-08-19T09:07:25;23.40;99.90
11003;DHT22;5554;55.796;13.090;2022-08-19T09:10:02;23.40;99.90
11003;DHT22;5554;55.796;13.090;2022-08-19T09:12:37;23.30;99.90
11003;DHT22;5554;55.796;13.090;2022-08-19T09:15:08;23.40;99.90
11003;DHT22;5554;55.796;13.090;2022-08-19T09:17:36;23.40;99.90
11003;DHT22;5554;55.796;13.090;2022-08-19T09:20:15;23.50;99.90
11003;DHT22;5554;55.796;13.090;2022-08-19T09:22:44;23.50;99.90
11003;DHT22;5554;55.796;13.090;2022-08-19T09:25:14;23.70;99.90
11003;DHT22;5554;55.796;13.090;2022-08-19T09:30:52;23.90;99.90
11003;DHT22;5554;55.796;13.090;2022-08-19T09:33:23;24.00;99.90
11003;DHT22;5554;55.796;13.090;2022-08-19T09:36:02;24.30;99.90
11003;DHT22;5554;55.796;13.090;2022-08-19T09:38:33;24.40;99.90
11003;DHT22;5554;55.796;13.090;2022-08-19T09:41:09;24.30;99.90
11003;DHT22;5554;55.796;13.090;2022-08-19T09:43:39;24.40;99.90
11003;DHT22;5554;55.796;13.090;2022-08-19T09:46:08;24.30;99.90
11003;DHT22;5554;55.796;13.090;2022-08-19T09:48:36;24.30;99.90
11003;DHT22;5554;55.796;13.090;2022-08-19T09:51:06;24.40;99.90
11003;DHT22;5554;55.796;13.090;2022-08-19T09:53:43;24.70;99.90
11003;DHT22;5554;55.796;13.090;2022-08-19T09:56:13;24.70;99.90
11003;DHT22;5554;55.796;13.090;2022-08-19T09:58:43;24.70;99.90
11003;DHT22;5554;55.796;13.090;2022-08-19T10:01:16;24.80;99.90
11003;DHT22;5554;55.796;13.090;2022-08-19T10:04:00;24.70;99.90
11003;DHT22;5554;55.796;13.090;2022-08-19T10:06:30;24.60;99.90
11003;DHT22;5554;55.796;13.090;2022-08-19T10:08:58;24.70;99.90
11003;DHT22;5554;55.796;13.090;2022-08-19T10:11:26;24.70;99.90
11003;DHT22;5554;55.796;13.090;2022-08-19T10:13:56;24.50;99.90
11003;DHT22;5554;55.796;13.090;2022-08-19T10:19:53;24.70;99.90
11003;DHT22;5554;55.796;13.090;2022-08-19T10:22:25;24.70;99.90
11003;DHT22;5554;55.796;13.090;2022-08-19T10:35:22;25.30;99.90
11003;DHT22;5554;55.796;13.090;2022-08-19T10:37:53;25.40;99.90
11003;DHT22;5554;55.796;13.090;2022-08-19T10:40:25;25.40;99.90
11003;DHT22;5554;55.796;13.090;2022-08-19T10:42:52;25.60;99.90
11003;DHT22;5554;55.796;13.090;2022-08-19T10:45:19;25.60;99.90
11003;DHT22;5554;55.796;13.090;2022-08-19T10:47:49;25.40;99.90
11003;DHT22;5554;55.796;13.090;2022-08-19T10:50:17;25.60;99.90
11003;DHT22;5554;55.796;13.090;2022-08-19T10:55:51;25.30;99.90
11003;DHT22;5554;55.796;13.090;2022-08-19T10:58:36;25.30;99.90
11003;DHT22;5554;55.796;13.090;2022-08-19T11:01:06;25.70;99.90
11003;DHT22;5554;55.796;13.090;2022-08-19T11:03:33;25.70;99.90
11003;DHT22;5554;55.796;13.090;2022-08-19T11:06:01;25.50;99.90
11003;DHT22;5554;55.796;13.090;2022-08-19T11:08:30;25.30;99.90
11003;DHT22;5554;55.796;13.090;2022-08-19T11:10:59;25.30;99.90
11003;DHT22;5554;55.796;13.090;2022-08-19T11:13:29;25.30;99.90
11003;DHT22;5554;55.796;13.090;2022-08-19T11:15:59;25.30;99.90
11003;DHT22;5554;55.796;13.090;2022-08-19T11:18:28;25.20;99.90
11003;DHT22;5554;55.796;13.090;2022-08-19T11:31:10;25.00;99.90
11003;DHT22;5554;55.796;13.090;2022-08-19T11:33:38;24.50;99.90
11003;DHT22;5554;55.796;13.090;2022-08-19T11:36:22;24.20;99.90
11003;DHT22;5554;55.796;13.090;2022-08-19T11:39:05;24.00;99.90
11003;DHT22;5554;55.796;13.090;2022-08-19T11:42:04;23.80;99.90
11003;DHT22;5554;55.796;13.090;2022-08-19T11:44:52;23.80;99.90
11003;DHT22;5554;55.796;13.090;2022-08-19T11:47:21;23.90;99.90
11003;DHT22;5554;55.796;13.090;2022-08-19T11:49:49;23.80;99.90
11003;DHT22;5554;55.796;13.090;2022-08-19T11:52:16;24.00;99.90
11003;DHT22;5554;55.796;13.090;2022-08-19T11:54:43;24.10;99.90
11003;DHT22;5554;55.796;13.090;2022-08-19T11:57:10;24.20;99.90
11003;DHT22;5554;55.796;13.090;2022-08-19T11:59:37;24.20;99.90
11003;DHT22;5554;55.796;13.090;2022-08-19T12:02:05;24.50;99.90
11003;DHT22;5554;55.796;13.090;2022-08-19T12:04:34;24.40;99.90
11003;DHT22;5554;55.796;13.090;2022-08-19T12:07:18;24.40;99.90
11003;DHT22;5554;55.796;13.090;2022-08-19T12:09:45;24.40;99.90
11003;DHT22;5554;55.796;13.090;2022-08-19T12:12:12;24.50;99.90
11003;DHT22;5554;55.796;13.090;2022-08-19T12:14:39;24.50;99.90
11003;DHT22;5554;55.796;13.090;2022-08-19T12:17:09;24.40;99.90
11003;DHT22;5554;55.796;13.090;2022-08-19T12:19:38;24.40;99.90
11003;DHT22;5554;55.796;13.090;2022-08-19T12:22:11;24.40;99.90
11003;DHT22;5554;55.796;13.090;2022-08-19T12:24:38;24.30;99.90
11003;DHT22;5554;55.796;13.090;2022-08-19T12:27:05;24.20;99.90
11003;DHT22;5554;55.796;13.090;2022-08-19T12:29:32;24.20;99.90
11003;DHT22;5554;55.796;13.090;2022-08-19T12:31:59;24.20;99.90
11003;DHT22;5554;55.796;13.090;2022-08-19T12:34:28;24.20;99.90
11003;DHT22;5554;55.796;13.090;2022-08-19T12:37:03;24.20;99.90
11003;DHT22;5554;55.796;13.090;2022-08-19T12:39:34;24.20;99.90
11003;DHT22;5554;55.796;13.090;2022-08-19T12:42:01;24.10;99.90
11003;DHT22;5554;55.796;13.090;2022-08-19T12:44:28;24.00;99.90
11003;DHT22;5554;55.796;13.090;2022-08-19T12:46:56;23.90;99.90
11003;DHT22;5554;55.796;13.090;2022-08-19T12:49:31;24.10;99.90
11003;DHT22;5554;55.796;13.090;2022-08-19T12:52:01;24.10;99.90
11003;DHT22;5554;55.796;13.090;2022-08-19T12:57:21;24.00;99.90
11003;DHT22;5554;55.796;13.090;2022-08-19T12:59:52;23.80;99.90
11003;DHT22;5554;55.796;13.090;2022-08-19T13:02:47;23.80;99.90
11003;DHT22;5554;55.796;13.090;2022-08-19T13:05:20;23.70;99.90
11003;DHT22;5554;55.796;13.090;2022-08-19T13:07:50;23.60;99.90
11003;DHT22;5554;55.796;13.090;2022-08-19T13:10:20;23.70;99.90
11003;DHT22;5554;55.796;13.090;2022-08-19T13:12:49;23.80;99.90
11003;DHT22;5554;55.796;13.090;2022-08-19T13:15:18;23.70;99.90
11003;DHT22;5554;55.796;13.090;2022-08-19T13:17:54;23.70;99.90
11003;DHT22;5554;55.796;13.090;2022-08-19T13:20:23;23.80;99.90
11003;DHT22;5554;55.796;13.090;2022-08-19T13:22:52;23.60;99.90
11003;DHT22;5554;55.796;13.090;2022-08-19T13:25:20;23.60;99.90
11003;DHT22;5554;55.796;13.090;2022-08-19T13:27:49;23.60;99.90
11003;DHT22;5554;55.796;13.090;2022-08-19T13:30:22;23.50;99.90
11003;DHT22;5554;55.796;13.090;2022-08-19T13:33:07;23.50;99.90
11003;DHT22;5554;55.796;13.090;2022-08-19T13:35:37;23.60;99.90
11003;DHT22;5554;55.796;13.090;2022-08-19T13:38:09;23.60;99.90
11003;DHT22;5554;55.796;13.090;2022-08-19T13:40:37;23.50;99.90
11003;DHT22;5554;55.796;13.090;2022-08-19T13:43:04;23.50;99.90
11003;DHT22;5554;55.796;13.090;2022-08-19T13:45:33;23.50;99.90
11003;DHT22;5554;55.796;13.090;2022-08-19T13:48:12;23.40;99.90
11003;DHT22;5554;55.796;13.090;2022-08-19T13:50:46;23.50;99.90
11003;DHT22;5554;55.796;13.090;2022-08-19T13:53:17;23.60;99.90
11003;DHT22;5554;55.796;13.090;2022-08-19T13:55:48;23.60;99.90
11003;DHT22;5554;55.796;13.090;2022-08-19T13:58:23;23.60;99.90
11003;DHT22;5554;55.796;13.090;2022-08-19T14:00:50;23.60;99.90
11003;DHT22;5554;55.796;13.090;2022-08-19T14:03:17;23.60;99.90
11003;DHT22;5554;55.796;13.090;2022-08-19T14:05:45;23.60;99.90
11003;DHT22;5554;55.796;13.090;2022-08-19T14:08:13;23.60;99.90
11003;DHT22;5554;55.796;13.090;2022-08-19T14:10:47;23.60;99.90
11003;DHT22;5554;55.796;13.090;2022-08-19T14:13:17;23.70;99.90
11003;DHT22;5554;55.796;13.090;2022-08-19T14:15:44;23.80;99.90
11003;DHT22;5554;55.796;13.090;2022-08-19T14:18:16;23.70;99.90
11003;DHT22;5554;55.796;13.090;2022-08-19T14:20:44;23.60;99.90
11003;DHT22;5554;55.796;13.090;2022-08-19T14:23:11;23.80;99.90
11003;DHT22;5554;55.796;13.090;2022-08-19T14:25:40;23.80;99.90
11003;DHT22;5554;55.796;13.090;2022-08-19T14:28:07;23.70;99.90
11003;DHT22;5554;55.796;13.090;2022-08-19T14:30:36;23.60;99.90
11003;DHT22;5554;55.796;13.090;2022-08-19T14:33:05;23.50;99.90
11003;DHT22;5554;55.796;13.090;2022-08-19T14:35:33;23.60;99.90
11003;DHT22;5554;55.796;13.090;2022-08-19T14:38:01;23.40;99.90
11003;DHT22;5554;55.796;13.090;2022-08-19T14:40:30;23.40;99.90
11003;DHT22;5554;55.796;13.090;2022-08-19T14:43:02;23.30;99.90
11003;DHT22;5554;55.796;13.090;2022-08-19T14:45:35;23.30;99.90
11003;DHT22;5554;55.796;13.090;2022-08-19T14:48:03;23.20;99.90
11003;DHT22;5554;55.796;13.090;2022-08-19T14:50:34;23.20;99.90
11003;DHT22;5554;55.796;13.090;2022-08-19T14:53:05;23.10;99.90
11003;DHT22;5554;55.796;13.090;2022-08-19T14:55:33;23.10;99.90
11003;DHT22;5554;55.796;13.090;2022-08-19T14:58:01;23.20;99.90
11003;DHT22;5554;55.796;13.090;2022-08-19T15:00:31;23.00;99.90
11003;DHT22;5554;55.796;13.090;2022-08-19T15:03:04;23.00;99.90
11003;DHT22;5554;55.796;13.090;2022-08-19T15:05:32;23.00;99.90
11003;DHT22;5554;55.796;13.090;2022-08-19T15:08:03;22.90;99.90
11003;DHT22;5554;55.796;13.090;2022-08-19T15:10:51;22.90;99.90
11003;DHT22;5554;55.796;13.090;2022-08-19T15:13:21;22.80;99.90
11003;DHT22;5554;55.796;13.090;2022-08-19T15:16:07;23.00;99.90
11003;DHT22;5554;55.796;13.090;2022-08-19T15:21:44;23.00;99.90
11003;DHT22;5554;55.796;13.090;2022-08-19T15:24:12;22.80;99.90
11003;DHT22;5554;55.796;13.090;2022-08-19T15:26:39;22.80;99.90
11003;DHT22;5554;55.796;13.090;2022-08-19T15:29:08;22.90;99.90
11003;DHT22;5554;55.796;13.090;2022-08-19T15:31:39;22.80;99.90
11003;DHT22;5554;55.796;13.090;2022-08-19T15:34:07;22.70;99.90
11003;DHT22;5554;55.796;13.090;2022-08-19T15:36:34;22.70;99.90
11003;DHT22;5554;55.796;13.090;2022-08-19T15:39:15;22.60;99.90
11003;DHT22;5554;55.796;13.090;2022-08-19T15:41:44;22.70;99.90
11003;DHT22;5554;55.796;13.090;2022-08-19T15:44:17;22.70;99.90
11003;DHT22;5554;55.796;13.090;2022-08-19T15:46:47;22.70;99.90
11003;DHT22;5554;55.796;13.090;2022-08-19T15:49:16;22.70;99.90
11003;DHT22;5554;55.796;13.090;2022-08-19T15:51:48;22.70;99.90
11003;DHT22;5554;55.796;13.090;2022-08-19T15:54:18;22.80;99.90
11003;DHT22;5554;55.796;13.090;2022-08-19T15:56:55;22.90;99.90
11003;DHT22;5554;55.796;13.090;2022-08-19T15:59:40;22.90;99.90
11003;DHT22;5554;55.796;13.090;2022-08-19T16:02:26;22.80;99.90
11003;DHT22;5554;55.796;13.090;2022-08-19T16:05:18;22.70;99.90
11003;DHT22;5554;55.796;13.090;2022-08-19T16:10:43;22.40;99.90
11003;DHT22;5554;55.796;13.090;2022-08-19T16:13:23;22.40;99.90
11003;DHT22;5554;55.796;13.090;2022-08-19T16:15:52;22.40;99.90
11003;DHT22;5554;55.796;13.090;2022-08-19T16:18:21;22.30;99.90
11003;DHT22;5554;55.796;13.090;2022-08-19T16:20:49;22.20;99.90
11003;DHT22;5554;55.796;13.090;2022-08-19T16:23:16;22.30;99.90
11003;DHT22;5554;55.796;13.090;2022-08-19T16:25:43;22.30;99.90
11003;DHT22;5554;55.796;13.090;2022-08-19T16:28:10;22.40;99.90
11003;DHT22;5554;55.796;13.090;2022-08-19T16:30:38;22.50;99.90
11003;DHT22;5554;55.796;13.090;2022-08-19T16:33:08;22.50;99.90
11003;DHT22;5554;55.796;13.090;2022-08-19T16:35:35;22.40;99.90